sensor_id;sensor_type;location;lat;lon;timestamp;pressure;altitude;pressure_sealevel;temperature;humidity
77017;BME280;65949;53.132;17.930;2022-12-16T00:02:14;100844.23;;;-6.81;72.08
77017;BME280;65949;53.132;17.930;2022-12-16T00:04:40;100849.81;;;-6.85;71.97
77017;BME280;65949;53.132;17.930;2022-12-16T00:07:07;100852.91;;;-6.85;72.05
77017;BME280;65949;53.132;17.930;2022-12-16T00:09:34;100850.45;;;-6.86;71.63
77017;BME280;65949;53.132;17.930;2022-12-16T00:12:00;100844.91;;;-6.87;71.94
77017;BME280;65949;53.132;17.930;2022-12-16T00:14:27;100843.79;;;-6.85;71.66
77017;BME280;65949;53.132;17.930;2022-12-16T00:16:54;100839.45;;;-6.80;71.73
77017;BME280;65949;53.132;17.930;2022-12-16T00:19:21;100837.18;;;-6.76;71.50
77017;BME280;65949;53.132;17.930;2022-12-16T00:21:48;100839.86;;;-6.76;71.31
77017;BME280;65949;53.132;17.930;2022-12-16T00:24:15;100849.20;;;-6.75;71.52
77017;BME280;65949;53.132;17.930;2022-12-16T00:26:42;100854.59;;;-6.78;71.53
77017;BME280;65949;53.132;17.930;2022-12-16T00:29:08;100860.77;;;-6.81;71.54
77017;BME280;65949;53.132;17.930;2022-12-16T00:31:36;100860.48;;;-6.83;71.35
77017;BME280;65949;53.132;17.930;2022-12-16T00:34:03;100863.55;;;-6.87;71.25
77017;BME280;65949;53.132;17.930;2022-12-16T00:36:29;100864.05;;;-6.89;71.13
77017;BME280;65949;53.132;17.930;2022-12-16T00:38:56;100863.42;;;-6.90;71.50
77017;BME280;65949;53.132;17.930;2022-12-16T00:41:23;100862.55;;;-6.95;71.56
77017;BME280;65949;53.132;17.930;2022-12-16T00:43:50;100860.77;;;-6.99;71.90
77017;BME280;65949;53.132;17.930;2022-12-16T00:46:16;100866.48;;;-7.05;71.22
77017;BME280;65949;53.132;17.930;2022-12-16T00:48:43;100870.46;;;-7.10;71.22
77017;BME280;65949;53.132;17.930;2022-12-16T00:51:10;100867.89;;;-7.19;71.08
77017;BME280;65949;53.132;17.930;2022-12-16T00:53:36;100863.81;;;-7.26;71.47
77017;BME280;65949;53.132;17.930;2022-12-16T00:56:05;100863.38;;;-7.31;71.89
77017;BME280;65949;53.132;17.930;2022-12-16T00:58:33;100870.60;;;-7.32;71.07
77017;BME280;65949;53.132;17.930;2022-12-16T01:01:00;100876.58;;;-7.33;71.47
77017;BME280;65949;53.132;17.930;2022-12-16T01:03:27;100881.40;;;-7.34;71.28
77017;BME280;65949;53.132;17.930;2022-12-16T01:05:54;100886.35;;;-7.35;71.61
77017;BME280;65949;53.132;17.930;2022-12-16T01:08:21;100887.63;;;-7.32;71.58
77017;BME280;65949;53.132;17.930;2022-12-16T01:10:56;100898.83;;;-7.33;71.16
77017;BME280;65949;53.132;17.930;2022-12-16T01:13:24;100906.29;;;-7.33;71.49
77017;BME280;65949;53.132;17.930;2022-12-16T01:15:51;100915.75;;;-7.33;71.74
77017;BME280;65949;53.132;17.930;2022-12-16T01:18:18;100921.31;;;-7.29;71.61
77017;BME280;65949;53.132;17.930;2022-12-16T01:20:45;100925.08;;;-7.24;71.50
77017;BME280;65949;53.132;17.930;2022-12-16T01:23:12;100931.63;;;-7.26;71.36
77017;BME280;65949;53.132;17.930;2022-12-16T01:25:38;100933.98;;;-7.29;71.54
77017;BME280;65949;53.132;17.930;2022-12-16T01:28:05;100930.98;;;-7.32;71.51
77017;BME280;65949;53.132;17.930;2022-12-16T01:30:32;100931.08;;;-7.37;71.43
77017;BME280;65949;53.132;17.930;2022-12-16T01:32:58;100931.48;;;-7.40;71.83
77017;BME280;65949;53.132;17.930;2022-12-16T01:35:25;100922.98;;;-7.37;71.41
77017;BME280;65949;53.132;17.930;2022-12-16T01:37:52;100919.27;;;-7.37;71.69
77017;BME280;65949;53.132;17.930;2022-12-16T01:40:21;100920.18;;;-7.42;71.22
77017;BME280;65949;53.132;17.930;2022-12-16T01:42:49;100917.35;;;-7.46;71.67
77017;BME280;65949;53.132;17.930;2022-12-16T01:45:29;100914.70;;;-7.47;71.34
77017;BME280;65949;53.132;17.930;2022-12-16T01:48:00;100909.80;;;-7.49;71.29
77017;BME280;65949;53.132;17.930;2022-12-16T01:50:29;100905.52;;;-7.50;71.01
77017;BME280;65949;53.132;17.930;2022-12-16T01:52:59;100900.31;;;-7.52;70.98
77017;BME280;65949;53.132;17.930;2022-12-16T01:55:42;100900.39;;;-7.53;71.04
77017;BME280;65949;53.132;17.930;2022-12-16T01:58:17;100895.56;;;-7.54;70.76
77017;BME280;65949;53.132;17.930;2022-12-16T02:00:45;100895.45;;;-7.57;70.92
77017;BME280;65949;53.132;17.930;2022-12-16T02:03:12;100890.45;;;-7.57;71.29
77017;BME280;65949;53.132;17.930;2022-12-16T02:05:40;100883.37;;;-7.53;70.99
77017;BME280;65949;53.132;17.930;2022-12-16T02:19:16;100879.20;;;-7.50;70.33
77017;BME280;65949;53.132;17.930;2022-12-16T02:27:48;100877.20;;;-7.72;70.49
77017;BME280;65949;53.132;17.930;2022-12-16T02:36:31;100880.91;;;-7.99;70.73
77017;BME280;65949;53.132;17.930;2022-12-16T02:39:21;100880.19;;;-8.06;70.79
77017;BME280;65949;53.132;17.930;2022-12-16T02:44:34;100874.13;;;-8.13;70.71
77017;BME280;65949;53.132;17.930;2022-12-16T02:47:05;100871.77;;;-8.13;70.62
77017;BME280;65949;53.132;17.930;2022-12-16T02:51:59;100873.89;;;-8.16;70.78
77017;BME280;65949;53.132;17.930;2022-12-16T02:54:27;100874.64;;;-8.15;70.82
77017;BME280;65949;53.132;17.930;2022-12-16T03:00:02;100869.45;;;-8.13;70.81
77017;BME280;65949;53.132;17.930;2022-12-16T03:03:01;100871.52;;;-8.08;70.58
77017;BME280;65949;53.132;17.930;2022-12-16T03:05:47;100872.77;;;-8.05;70.39
77017;BME280;65949;53.132;17.930;2022-12-16T03:08:29;100876.27;;;-7.94;70.48
77017;BME280;65949;53.132;17.930;2022-12-16T03:11:03;100869.70;;;-7.81;70.43
77017;BME280;65949;53.132;17.930;2022-12-16T03:13:36;100867.46;;;-7.68;70.46
77017;BME280;65949;53.132;17.930;2022-12-16T03:16:05;100864.67;;;-7.62;70.10
77017;BME280;65949;53.132;17.930;2022-12-16T03:18:34;100863.81;;;-7.61;70.06
77017;BME280;65949;53.132;17.930;2022-12-16T03:21:05;100860.48;;;-7.60;69.45
77017;BME280;65949;53.132;17.930;2022-12-16T03:24:06;100851.02;;;-7.60;70.08
77017;BME280;65949;53.132;17.930;2022-12-16T03:26:38;100851.66;;;-7.63;69.71
77017;BME280;65949;53.132;17.930;2022-12-16T03:29:35;100848.02;;;-7.62;69.53
77017;BME280;65949;53.132;17.930;2022-12-16T03:32:02;100839.97;;;-7.63;69.67
77017;BME280;65949;53.132;17.930;2022-12-16T03:34:48;100838.05;;;-7.67;69.39
77017;BME280;65949;53.132;17.930;2022-12-16T03:37:19;100833.23;;;-7.68;69.62
77017;BME280;65949;53.132;17.930;2022-12-16T03:39:51;100835.62;;;-7.63;69.51
77017;BME280;65949;53.132;17.930;2022-12-16T03:42:18;100843.14;;;-7.58;69.48
77017;BME280;65949;53.132;17.930;2022-12-16T03:44:45;100840.58;;;-7.58;69.04
77017;BME280;65949;53.132;17.930;2022-12-16T03:47:13;100837.38;;;-7.62;69.26
77017;BME280;65949;53.132;17.930;2022-12-16T03:49:40;100834.69;;;-7.68;69.35
77017;BME280;65949;53.132;17.930;2022-12-16T03:52:07;100834.45;;;-7.73;69.33
77017;BME280;65949;53.132;17.930;2022-12-16T03:54:33;100837.94;;;-7.74;69.18
77017;BME280;65949;53.132;17.930;2022-12-16T03:57:00;100838.36;;;-7.79;69.31
77017;BME280;65949;53.132;17.930;2022-12-16T03:59:27;100838.27;;;-7.84;69.36
77017;BME280;65949;53.132;17.930;2022-12-16T04:01:54;100838.50;;;-7.90;69.45
77017;BME280;65949;53.132;17.930;2022-12-16T04:04:21;100840.83;;;-7.98;69.56
77017;BME280;65949;53.132;17.930;2022-12-16T04:06:47;100835.65;;;-8.08;69.51
77017;BME280;65949;53.132;17.930;2022-12-16T04:09:34;100837.55;;;-8.18;69.25
77017;BME280;65949;53.132;17.930;2022-12-16T04:12:01;100838.76;;;-8.30;69.46
77017;BME280;65949;53.132;17.930;2022-12-16T04:14:46;100839.15;;;-8.43;69.52
77017;BME280;65949;53.132;17.930;2022-12-16T04:17:32;100839.36;;;-8.49;69.65
77017;BME280;65949;53.132;17.930;2022-12-16T04:20:18;100842.94;;;-8.52;69.93
77017;BME280;65949;53.132;17.930;2022-12-16T04:23:04;100847.98;;;-8.54;69.89
77017;BME280;65949;53.132;17.930;2022-12-16T04:25:49;100843.91;;;-8.52;70.12
77017;BME280;65949;53.132;17.930;2022-12-16T04:28:16;100833.73;;;-8.45;70.14
77017;BME280;65949;53.132;17.930;2022-12-16T04:30:43;100823.95;;;-8.33;70.11
77017;BME280;65949;53.132;17.930;2022-12-16T04:33:11;100821.80;;;-8.23;69.63
77017;BME280;65949;53.132;17.930;2022-12-16T04:35:58;100818.98;;;-8.20;69.23
77017;BME280;65949;53.132;17.930;2022-12-16T04:38:44;100818.45;;;-8.18;69.42
77017;BME280;65949;53.132;17.930;2022-12-16T04:41:29;100818.41;;;-8.16;69.61
77017;BME280;65949;53.132;17.930;2022-12-16T04:44:14;100818.20;;;-8.17;69.15
77017;BME280;65949;53.132;17.930;2022-12-16T04:47:00;100821.42;;;-8.19;69.51
77017;BME280;65949;53.132;17.930;2022-12-16T04:49:45;100825.17;;;-8.21;69.26
77017;BME280;65949;53.132;17.930;2022-12-16T04:52:31;100827.03;;;-8.22;69.06
77017;BME280;65949;53.132;17.930;2022-12-16T04:55:16;100827.69;;;-8.27;69.15
77017;BME280;65949;53.132;17.930;2022-12-16T04:58:02;100831.34;;;-8.34;69.05
77017;BME280;65949;53.132;17.930;2022-12-16T05:00:48;100836.23;;;-8.38;69.29
77017;BME280;65949;53.132;17.930;2022-12-16T05:03:34;100837.39;;;-8.40;69.26
77017;BME280;65949;53.132;17.930;2022-12-16T05:06:20;100845.45;;;-8.42;69.84
77017;BME280;65949;53.132;17.930;2022-12-16T05:09:06;100849.17;;;-8.40;69.48
77017;BME280;65949;53.132;17.930;2022-12-16T05:11:52;100853.67;;;-8.41;69.75
77017;BME280;65949;53.132;17.930;2022-12-16T05:14:37;100855.96;;;-8.37;69.80
77017;BME280;65949;53.132;17.930;2022-12-16T05:17:23;100849.08;;;-8.35;69.87
77017;BME280;65949;53.132;17.930;2022-12-16T05:20:08;100854.23;;;-8.38;69.72
77017;BME280;65949;53.132;17.930;2022-12-16T05:22:55;100849.29;;;-8.40;69.64
77017;BME280;65949;53.132;17.930;2022-12-16T05:25:41;100846.33;;;-8.48;69.46
77017;BME280;65949;53.132;17.930;2022-12-16T05:28:27;100839.40;;;-8.58;69.52
77017;BME280;65949;53.132;17.930;2022-12-16T05:31:12;100837.59;;;-8.65;69.46
77017;BME280;65949;53.132;17.930;2022-12-16T05:33:58;100836.54;;;-8.66;69.96
77017;BME280;65949;53.132;17.930;2022-12-16T05:36:43;100841.02;;;-8.69;69.62
77017;BME280;65949;53.132;17.930;2022-12-16T05:39:29;100843.54;;;-8.69;69.55
77017;BME280;65949;53.132;17.930;2022-12-16T05:42:14;100847.84;;;-8.70;69.66
77017;BME280;65949;53.132;17.930;2022-12-16T05:45:00;100842.33;;;-8.69;69.69
77017;BME280;65949;53.132;17.930;2022-12-16T05:47:48;100840.46;;;-8.67;69.67
77017;BME280;65949;53.132;17.930;2022-12-16T05:50:34;100839.20;;;-8.62;69.35
77017;BME280;65949;53.132;17.930;2022-12-16T05:53:19;100840.45;;;-8.52;69.53
77017;BME280;65949;53.132;17.930;2022-12-16T05:56:05;100847.77;;;-8.45;69.67
77017;BME280;65949;53.132;17.930;2022-12-16T05:58:50;100857.19;;;-8.41;69.47
77017;BME280;65949;53.132;17.930;2022-12-16T06:01:36;100859.15;;;-8.37;69.38
77017;BME280;65949;53.132;17.930;2022-12-16T06:04:21;100863.86;;;-8.35;69.29
77017;BME280;65949;53.132;17.930;2022-12-16T06:07:07;100864.23;;;-8.29;69.61
77017;BME280;65949;53.132;17.930;2022-12-16T06:09:52;100871.48;;;-8.19;69.67
77017;BME280;65949;53.132;17.930;2022-12-16T06:12:38;100879.27;;;-8.22;69.59
77017;BME280;65949;53.132;17.930;2022-12-16T06:15:23;100884.23;;;-8.28;69.72
77017;BME280;65949;53.132;17.930;2022-12-16T06:18:08;100891.75;;;-8.35;69.63
77017;BME280;65949;53.132;17.930;2022-12-16T06:20:54;100901.26;;;-8.38;69.75
77017;BME280;65949;53.132;17.930;2022-12-16T06:23:39;100905.38;;;-8.39;70.12
77017;BME280;65949;53.132;17.930;2022-12-16T06:26:25;100909.49;;;-8.40;70.23
77017;BME280;65949;53.132;17.930;2022-12-16T06:29:10;100910.04;;;-8.43;70.13
77017;BME280;65949;53.132;17.930;2022-12-16T06:31:56;100914.88;;;-8.44;70.77
77017;BME280;65949;53.132;17.930;2022-12-16T06:34:41;100924.61;;;-8.39;70.35
77017;BME280;65949;53.132;17.930;2022-12-16T06:37:27;100931.44;;;-8.32;70.93
77017;BME280;65949;53.132;17.930;2022-12-16T06:40:12;100937.95;;;-8.22;71.07
77017;BME280;65949;53.132;17.930;2022-12-16T06:42:57;100938.70;;;-8.07;70.77
77017;BME280;65949;53.132;17.930;2022-12-16T06:45:43;100936.42;;;-7.94;70.87
77017;BME280;65949;53.132;17.930;2022-12-16T06:48:28;100941.30;;;-7.88;70.57
77017;BME280;65949;53.132;17.930;2022-12-16T06:51:14;100946.38;;;-7.82;70.88
77017;BME280;65949;53.132;17.930;2022-12-16T06:53:59;100948.44;;;-7.73;70.18
77017;BME280;65949;53.132;17.930;2022-12-16T06:56:45;100951.00;;;-7.61;70.33
77017;BME280;65949;53.132;17.930;2022-12-16T06:59:30;100956.91;;;-7.49;70.10
77017;BME280;65949;53.132;17.930;2022-12-16T07:02:20;100954.59;;;-7.37;70.24
77017;BME280;65949;53.132;17.930;2022-12-16T07:05:05;100955.33;;;-7.30;69.54
77017;BME280;65949;53.132;17.930;2022-12-16T07:07:51;100956.41;;;-7.31;69.47
77017;BME280;65949;53.132;17.930;2022-12-16T07:10:36;100958.74;;;-7.35;69.32
77017;BME280;65949;53.132;17.930;2022-12-16T07:13:22;100957.30;;;-7.40;69.41
77017;BME280;65949;53.132;17.930;2022-12-16T07:16:08;100956.39;;;-7.39;69.35
77017;BME280;65949;53.132;17.930;2022-12-16T07:18:54;100955.17;;;-7.33;69.50
77017;BME280;65949;53.132;17.930;2022-12-16T07:21:39;100957.13;;;-7.28;69.48
77017;BME280;65949;53.132;17.930;2022-12-16T07:24:25;100958.98;;;-7.22;69.35
77017;BME280;65949;53.132;17.930;2022-12-16T07:27:10;100961.34;;;-7.20;68.91
77017;BME280;65949;53.132;17.930;2022-12-16T07:29:55;100961.58;;;-7.19;68.96
77017;BME280;65949;53.132;17.930;2022-12-16T07:32:41;100964.15;;;-7.19;69.30
77017;BME280;65949;53.132;17.930;2022-12-16T07:35:27;100962.30;;;-7.17;69.43
77017;BME280;65949;53.132;17.930;2022-12-16T07:38:12;100962.35;;;-7.16;69.11
77017;BME280;65949;53.132;17.930;2022-12-16T07:40:58;100968.36;;;-7.15;69.19
77017;BME280;65949;53.132;17.930;2022-12-16T07:43:43;100970.89;;;-7.10;69.50
77017;BME280;65949;53.132;17.930;2022-12-16T07:46:29;100977.00;;;-6.98;69.30
77017;BME280;65949;53.132;17.930;2022-12-16T07:49:14;100984.40;;;-6.94;69.06
77017;BME280;65949;53.132;17.930;2022-12-16T07:51:59;100977.42;;;-6.80;69.58
77017;BME280;65949;53.132;17.930;2022-12-16T07:54:45;100985.75;;;-6.73;68.88
77017;BME280;65949;53.132;17.930;2022-12-16T07:57:30;100985.55;;;-6.67;69.25
77017;BME280;65949;53.132;17.930;2022-12-16T08:00:16;100987.10;;;-6.64;69.32
77017;BME280;65949;53.132;17.930;2022-12-16T08:03:01;100983.10;;;-6.64;69.05
77017;BME280;65949;53.132;17.930;2022-12-16T08:05:48;100982.52;;;-6.71;69.29
77017;BME280;65949;53.132;17.930;2022-12-16T08:08:33;100982.20;;;-6.79;69.29
77017;BME280;65949;53.132;17.930;2022-12-16T08:11:19;100985.38;;;-6.78;69.72
77017;BME280;65949;53.132;17.930;2022-12-16T08:14:04;100989.61;;;-6.77;69.46
77017;BME280;65949;53.132;17.930;2022-12-16T08:16:49;100988.87;;;-6.74;70.23
77017;BME280;65949;53.132;17.930;2022-12-16T08:19:35;100985.40;;;-6.69;69.75
77017;BME280;65949;53.132;17.930;2022-12-16T08:22:39;100982.87;;;-6.62;70.28
77017;BME280;65949;53.132;17.930;2022-12-16T08:25:25;100988.11;;;-6.58;69.57
77017;BME280;65949;53.132;17.930;2022-12-16T08:28:10;100987.64;;;-6.58;69.87
77017;BME280;65949;53.132;17.930;2022-12-16T08:30:55;100989.70;;;-6.55;69.73
77017;BME280;65949;53.132;17.930;2022-12-16T08:33:41;100989.66;;;-6.43;70.06
77017;BME280;65949;53.132;17.930;2022-12-16T08:36:26;100988.38;;;-6.32;70.23
77017;BME280;65949;53.132;17.930;2022-12-16T08:39:12;100986.93;;;-6.21;69.97
77017;BME280;65949;53.132;17.930;2022-12-16T08:41:57;100986.91;;;-6.15;69.62
77017;BME280;65949;53.132;17.930;2022-12-16T08:44:43;100986.71;;;-6.11;69.92
77017;BME280;65949;53.132;17.930;2022-12-16T08:47:28;100987.33;;;-6.06;69.76
77017;BME280;65949;53.132;17.930;2022-12-16T08:50:14;100982.05;;;-6.06;69.63
77017;BME280;65949;53.132;17.930;2022-12-16T08:52:59;100979.85;;;-6.06;69.82
77017;BME280;65949;53.132;17.930;2022-12-16T08:55:45;100982.95;;;-6.08;69.86
77017;BME280;65949;53.132;17.930;2022-12-16T08:58:30;100985.06;;;-6.09;70.46
77017;BME280;65949;53.132;17.930;2022-12-16T09:01:16;100981.14;;;-6.09;70.40
77017;BME280;65949;53.132;17.930;2022-12-16T09:04:01;100987.17;;;-6.10;70.87
77017;BME280;65949;53.132;17.930;2022-12-16T09:06:46;100987.52;;;-6.14;70.56
77017;BME280;65949;53.132;17.930;2022-12-16T09:09:32;100991.34;;;-6.13;70.42
77017;BME280;65949;53.132;17.930;2022-12-16T09:12:17;100989.38;;;-6.06;70.95
77017;BME280;65949;53.132;17.930;2022-12-16T09:15:03;100988.08;;;-6.01;70.60
77017;BME280;65949;53.132;17.930;2022-12-16T09:17:55;100990.36;;;-5.95;70.46
77017;BME280;65949;53.132;17.930;2022-12-16T09:20:40;100993.39;;;-5.91;70.68
77017;BME280;65949;53.132;17.930;2022-12-16T09:23:26;100985.42;;;-5.89;70.85
77017;BME280;65949;53.132;17.930;2022-12-16T09:26:12;100982.92;;;-5.88;70.93
77017;BME280;65949;53.132;17.930;2022-12-16T09:28:57;100979.91;;;-5.90;70.99
77017;BME280;65949;53.132;17.930;2022-12-16T09:31:42;100974.19;;;-5.88;70.65
77017;BME280;65949;53.132;17.930;2022-12-16T09:34:28;100975.77;;;-5.87;70.97
77017;BME280;65949;53.132;17.930;2022-12-16T09:37:13;100970.14;;;-5.83;71.24
77017;BME280;65949;53.132;17.930;2022-12-16T09:39:59;100969.17;;;-5.78;71.47
77017;BME280;65949;53.132;17.930;2022-12-16T09:42:56;100972.86;;;-5.78;71.35
77017;BME280;65949;53.132;17.930;2022-12-16T09:45:58;100969.80;;;-5.74;71.52
77017;BME280;65949;53.132;17.930;2022-12-16T09:51:56;100969.13;;;-5.62;71.48
77017;BME280;65949;53.132;17.930;2022-12-16T09:54:45;100969.96;;;-5.56;71.71
77017;BME280;65949;53.132;17.930;2022-12-16T09:57:33;100971.38;;;-5.49;71.40
77017;BME280;65949;53.132;17.930;2022-12-16T10:00:22;100973.78;;;-5.41;71.56
77017;BME280;65949;53.132;17.930;2022-12-16T10:03:21;100972.33;;;-5.29;71.46
77017;BME280;65949;53.132;17.930;2022-12-16T10:15:17;100977.71;;;-5.31;72.14
77017;BME280;65949;53.132;17.930;2022-12-16T10:18:18;100973.05;;;-5.33;72.22
77017;BME280;65949;53.132;17.930;2022-12-16T10:21:15;100968.98;;;-5.37;72.26
77017;BME280;65949;53.132;17.930;2022-12-16T10:24:31;100970.15;;;-5.37;72.50
77017;BME280;65949;53.132;17.930;2022-12-16T10:27:26;100970.48;;;-5.35;72.46
77017;BME280;65949;53.132;17.930;2022-12-16T10:30:14;100973.59;;;-5.28;72.39
77017;BME280;65949;53.132;17.930;2022-12-16T10:33:00;100976.20;;;-5.23;72.72
77017;BME280;65949;53.132;17.930;2022-12-16T10:35:48;100975.89;;;-5.22;72.99
77017;BME280;65949;53.132;17.930;2022-12-16T10:38:51;100976.66;;;-5.19;73.21
77017;BME280;65949;53.132;17.930;2022-12-16T10:41:40;100973.10;;;-5.16;73.38
77017;BME280;65949;53.132;17.930;2022-12-16T10:44:36;100974.60;;;-5.07;73.27
77017;BME280;65949;53.132;17.930;2022-12-16T10:47:23;100972.98;;;-4.99;73.34
77017;BME280;65949;53.132;17.930;2022-12-16T10:50:13;100973.30;;;-4.90;73.42
77017;BME280;65949;53.132;17.930;2022-12-16T10:53:04;100965.55;;;-4.83;73.36
77017;BME280;65949;53.132;17.930;2022-12-16T10:59:02;100968.97;;;-4.64;73.03
77017;BME280;65949;53.132;17.930;2022-12-16T11:04:42;100968.48;;;-4.54;72.88
77017;BME280;65949;53.132;17.930;2022-12-16T11:10:39;100964.39;;;-4.45;72.66
77017;BME280;65949;53.132;17.930;2022-12-16T11:13:28;100968.51;;;-4.41;72.53
77017;BME280;65949;53.132;17.930;2022-12-16T11:16:24;100967.71;;;-4.38;72.67
77017;BME280;65949;53.132;17.930;2022-12-16T11:25:12;100967.35;;;-4.32;72.82
77017;BME280;65949;53.132;17.930;2022-12-16T11:28:11;100965.08;;;-4.30;73.17
77017;BME280;65949;53.132;17.930;2022-12-16T11:31:02;100959.65;;;-4.32;72.99
77017;BME280;65949;53.132;17.930;2022-12-16T11:33:49;100959.48;;;-4.39;73.22
77017;BME280;65949;53.132;17.930;2022-12-16T11:36:37;100953.66;;;-4.45;73.70
77017;BME280;65949;53.132;17.930;2022-12-16T11:39:26;100950.31;;;-4.43;73.67
77017;BME280;65949;53.132;17.930;2022-12-16T11:42:25;100955.70;;;-4.37;73.72
77017;BME280;65949;53.132;17.930;2022-12-16T11:45:20;100952.42;;;-4.29;73.15
77017;BME280;65949;53.132;17.930;2022-12-16T11:48:16;100951.80;;;-4.25;73.13
77017;BME280;65949;53.132;17.930;2022-12-16T11:51:10;100948.59;;;-4.21;73.18
77017;BME280;65949;53.132;17.930;2022-12-16T11:54:14;100940.66;;;-4.17;72.87
77017;BME280;65949;53.132;17.930;2022-12-16T11:57:03;100942.40;;;-4.12;73.03
77017;BME280;65949;53.132;17.930;2022-12-16T11:59:55;100945.17;;;-4.14;73.21
77017;BME280;65949;53.132;17.930;2022-12-16T12:03:13;100945.73;;;-4.15;73.27
77017;BME280;65949;53.132;17.930;2022-12-16T12:12:05;100950.01;;;-4.23;73.42
77017;BME280;65949;53.132;17.930;2022-12-16T12:20:55;100950.25;;;-4.31;73.85
77017;BME280;65949;53.132;17.930;2022-12-16T12:27:06;100962.71;;;-4.37;73.99
77017;BME280;65949;53.132;17.930;2022-12-16T12:30:20;100967.67;;;-4.34;74.14
77017;BME280;65949;53.132;17.930;2022-12-16T12:33:33;100968.08;;;-4.38;74.06
77017;BME280;65949;53.132;17.930;2022-12-16T12:36:37;100977.58;;;-4.38;74.12
77017;BME280;65949;53.132;17.930;2022-12-16T12:42:55;100986.75;;;-4.45;74.08
77017;BME280;65949;53.132;17.930;2022-12-16T12:52:05;100988.62;;;-4.42;74.41
77017;BME280;65949;53.132;17.930;2022-12-16T12:57:48;100993.68;;;-4.33;74.20
77017;BME280;65949;53.132;17.930;2022-12-16T13:00:41;100999.25;;;-4.36;74.10
77017;BME280;65949;53.132;17.930;2022-12-16T13:03:49;101002.69;;;-4.40;74.44
77017;BME280;65949;53.132;17.930;2022-12-16T13:06:38;101006.00;;;-4.43;74.69
77017;BME280;65949;53.132;17.930;2022-12-16T13:09:34;101005.38;;;-4.41;74.41
77017;BME280;65949;53.132;17.930;2022-12-16T13:12:33;101008.57;;;-4.43;74.36
77017;BME280;65949;53.132;17.930;2022-12-16T13:20:52;101015.17;;;-4.34;74.49
77017;BME280;65949;53.132;17.930;2022-12-16T13:23:42;101024.74;;;-4.33;74.10
77017;BME280;65949;53.132;17.930;2022-12-16T13:26:33;101031.22;;;-4.35;74.29
77017;BME280;65949;53.132;17.930;2022-12-16T13:29:22;101036.42;;;-4.36;74.18
77017;BME280;65949;53.132;17.930;2022-12-16T13:40:57;101044.55;;;-4.55;74.61
77017;BME280;65949;53.132;17.930;2022-12-16T13:46:49;101062.98;;;-4.57;74.98
77017;BME280;65949;53.132;17.930;2022-12-16T13:55:38;101067.00;;;-4.61;74.96
77017;BME280;65949;53.132;17.930;2022-12-16T13:58:34;101063.45;;;-4.63;74.98
77017;BME280;65949;53.132;17.930;2022-12-16T14:01:35;101059.33;;;-4.66;75.46
77017;BME280;65949;53.132;17.930;2022-12-16T14:04:27;101060.59;;;-4.67;75.38
77017;BME280;65949;53.132;17.930;2022-12-16T14:07:16;101062.26;;;-4.66;75.46
77017;BME280;65949;53.132;17.930;2022-12-16T14:10:03;101066.52;;;-4.69;75.36
77017;BME280;65949;53.132;17.930;2022-12-16T14:13:12;101067.77;;;-4.69;75.79
77017;BME280;65949;53.132;17.930;2022-12-16T14:21:53;101063.95;;;-4.70;75.87
77017;BME280;65949;53.132;17.930;2022-12-16T14:24:43;101069.68;;;-4.66;75.67
77017;BME280;65949;53.132;17.930;2022-12-16T14:27:31;101072.08;;;-4.63;75.98
77017;BME280;65949;53.132;17.930;2022-12-16T14:30:21;101080.81;;;-4.60;75.86
77017;BME280;65949;53.132;17.930;2022-12-16T14:33:24;101079.41;;;-4.63;75.87
77017;BME280;65949;53.132;17.930;2022-12-16T14:36:22;101081.52;;;-4.66;76.00
77017;BME280;65949;53.132;17.930;2022-12-16T14:39:10;101085.16;;;-4.70;76.11
77017;BME280;65949;53.132;17.930;2022-12-16T14:41:56;101086.13;;;-4.71;75.89
77017;BME280;65949;53.132;17.930;2022-12-16T14:44:46;101087.13;;;-4.73;76.30
77017;BME280;65949;53.132;17.930;2022-12-16T14:47:38;101092.13;;;-4.72;76.25
77017;BME280;65949;53.132;17.930;2022-12-16T14:50:27;101089.73;;;-4.69;76.41
77017;BME280;65949;53.132;17.930;2022-12-16T14:53:22;101089.72;;;-4.68;76.44
77017;BME280;65949;53.132;17.930;2022-12-16T14:56:20;101090.86;;;-4.72;76.55
77017;BME280;65949;53.132;17.930;2022-12-16T14:59:14;101089.67;;;-4.70;76.50
77017;BME280;65949;53.132;17.930;2022-12-16T15:02:29;101089.85;;;-4.71;76.81
77017;BME280;65949;53.132;17.930;2022-12-16T15:05:19;101087.48;;;-4.75;76.92
77017;BME280;65949;53.132;17.930;2022-12-16T15:08:11;101093.57;;;-4.73;76.86
77017;BME280;65949;53.132;17.930;2022-12-16T15:10:57;101095.58;;;-4.71;77.11
77017;BME280;65949;53.132;17.930;2022-12-16T15:13:56;101100.80;;;-4.69;76.72
77017;BME280;65949;53.132;17.930;2022-12-16T15:16:43;101104.83;;;-4.69;77.09
77017;BME280;65949;53.132;17.930;2022-12-16T15:19:37;101105.81;;;-4.74;77.31
77017;BME280;65949;53.132;17.930;2022-12-16T15:22:24;101105.88;;;-4.72;77.08
77017;BME280;65949;53.132;17.930;2022-12-16T15:25:23;101109.92;;;-4.71;76.81
77017;BME280;65949;53.132;17.930;2022-12-16T15:31:39;101118.45;;;-4.71;77.13
77017;BME280;65949;53.132;17.930;2022-12-16T15:34:48;101121.87;;;-4.75;77.35
77017;BME280;65949;53.132;17.930;2022-12-16T15:37:38;101119.70;;;-4.79;77.70
77017;BME280;65949;53.132;17.930;2022-12-16T15:40:28;101122.38;;;-4.76;77.40
77017;BME280;65949;53.132;17.930;2022-12-16T15:46:05;101132.77;;;-4.77;77.50
77017;BME280;65949;53.132;17.930;2022-12-16T15:48:50;101141.27;;;-4.78;77.63
77017;BME280;65949;53.132;17.930;2022-12-16T15:51:45;101140.63;;;-4.78;77.33
77017;BME280;65949;53.132;17.930;2022-12-16T15:54:32;101139.40;;;-4.77;77.29
77017;BME280;65949;53.132;17.930;2022-12-16T15:57:32;101144.86;;;-4.74;77.42
77017;BME280;65949;53.132;17.930;2022-12-16T16:03:38;101149.54;;;-4.68;77.23
77017;BME280;65949;53.132;17.930;2022-12-16T16:06:24;101153.14;;;-4.65;77.60
77017;BME280;65949;53.132;17.930;2022-12-16T16:09:15;101158.37;;;-4.68;77.58
77017;BME280;65949;53.132;17.930;2022-12-16T16:12:04;101157.96;;;-4.71;77.38